createdAt,value
2019-01-03T00:00:48.604Z,2.90
2019-01-03T00:03:18.997Z,3.00
2019-01-03T00:05:49.078Z,3.10
2019-01-03T00:08:26.581Z,3.20
2019-01-03T00:11:13.132Z,3.20
2019-01-03T00:13:59.922Z,3.20
2019-01-03T00:16:32.696Z,3.20
2019-01-03T00:19:08.783Z,3.10
2019-01-03T00:21:41.605Z,3.10
2019-01-03T00:24:11.681Z,3.10
2019-01-03T00:26:58.283Z,3.10
2019-01-03T00:29:34.052Z,3.00
2019-01-03T00:32:21.922Z,3.10
2019-01-03T00:34:52.060Z,3.20
2019-01-03T00:37:28.049Z,3.20
2019-01-03T00:40:03.780Z,3.20
2019-01-03T00:42:45.856Z,3.20
2019-01-03T00:45:25.201Z,3.30
2019-01-03T00:48:10.634Z,3.20
2019-01-03T00:50:52.595Z,3.20
2019-01-03T00:53:39.191Z,3.20
2019-01-03T00:56:25.913Z,3.30
2019-01-03T00:58:59.042Z,3.20
2019-01-03T01:01:44.026Z,3.20
2019-01-03T01:04:26.136Z,3.20
2019-01-03T01:07:10.921Z,3.20
2019-01-03T01:09:53.290Z,3.20
2019-01-03T01:12:41.430Z,3.20
2019-01-03T01:15:21.138Z,3.20
2019-01-03T01:17:51.575Z,3.20
2019-01-03T01:20:24.107Z,3.20
2019-01-03T01:23:00.244Z,3.30
2019-01-03T01:25:30.348Z,3.20
2019-01-03T01:28:05.990Z,3.30
2019-01-03T01:30:38.857Z,3.30
2019-01-03T01:33:14.942Z,3.30
2019-01-03T01:35:45.041Z,3.50
2019-01-03T01:38:27.440Z,3.60
2019-01-03T01:41:13.845Z,3.50
2019-01-03T01:43:46.344Z,3.50
2019-01-03T01:46:16.424Z,3.60
2019-01-03T01:48:52.338Z,3.60
2019-01-03T01:51:25.141Z,3.60
2019-01-03T01:54:04.440Z,3.70
2019-01-03T01:56:51.092Z,3.70
2019-01-03T01:59:21.239Z,3.80
2019-01-03T02:02:08.161Z,3.90
2019-01-03T02:04:50.133Z,3.90
2019-01-03T02:07:26.198Z,3.90
2019-01-03T02:09:56.295Z,3.90
2019-01-03T02:12:28.800Z,3.80
2019-01-03T02:15:04.821Z,3.90
2019-01-03T02:17:35.189Z,3.90
2019-01-03T02:20:14.832Z,3.90
2019-01-03T02:22:47.881Z,3.90
2019-01-03T02:25:20.713Z,3.90
2019-01-03T02:28:02.937Z,4.00
2019-01-03T02:30:35.783Z,4.00
2019-01-03T02:33:15.032Z,4.00
2019-01-03T02:35:45.110Z,3.90
2019-01-03T02:38:21.717Z,4.00
2019-01-03T02:40:58.285Z,4.00
2019-01-03T02:43:34.454Z,3.90
2019-01-03T02:46:17.161Z,3.90
2019-01-03T02:49:03.733Z,3.90
2019-01-03T02:51:42.857Z,3.90
2019-01-03T02:54:12.996Z,3.90
2019-01-03T02:56:45.579Z,4.00
2019-01-03T02:59:15.928Z,4.00
2019-01-03T03:01:45.994Z,4.00
2019-01-03T03:04:32.345Z,4.00
2019-01-03T03:07:02.419Z,4.00
2019-01-03T03:09:48.880Z,4.10
2019-01-03T03:12:33.966Z,3.90
2019-01-03T03:15:04.037Z,3.90
2019-01-03T03:17:49.439Z,3.80
2019-01-03T03:20:19.515Z,3.90
2019-01-03T03:23:05.997Z,3.90
2019-01-03T03:25:36.052Z,3.90
2019-01-03T03:28:06.126Z,3.90
2019-01-03T03:30:42.467Z,3.90
2019-01-03T03:33:18.922Z,3.90
2019-01-03T03:35:51.942Z,3.90
2019-01-03T03:38:21.986Z,4.00
2019-01-03T03:40:57.871Z,4.10
2019-01-03T03:43:44.484Z,4.00
2019-01-03T03:46:14.553Z,4.00
2019-01-03T03:48:44.941Z,4.10
2019-01-03T03:51:31.510Z,4.10
2019-01-03T03:54:20.107Z,4.10
2019-01-03T03:56:52.888Z,4.10
2019-01-03T03:59:41.018Z,4.10
2019-01-03T04:02:11.092Z,4.00
2019-01-03T04:04:41.175Z,4.10
2019-01-03T04:07:14.166Z,4.00
2019-01-03T04:09:53.304Z,4.00
2019-01-03T04:12:23.395Z,4.00
2019-01-03T04:14:56.889Z,4.00
2019-01-03T04:17:38.755Z,4.00
2019-01-03T04:20:09.243Z,4.00
2019-01-03T04:22:39.382Z,3.90
2019-01-03T04:25:09.757Z,3.90
2019-01-03T04:27:56.585Z,3.80
2019-01-03T04:30:44.707Z,3.80
2019-01-03T04:33:31.289Z,3.80
2019-01-03T04:36:01.355Z,3.90
2019-01-03T04:38:43.156Z,3.90
2019-01-03T04:41:29.330Z,3.80
2019-01-03T04:44:15.748Z,3.80
2019-01-03T04:46:45.880Z,3.80
2019-01-03T04:49:32.517Z,3.80
2019-01-03T04:52:18.760Z,3.90
2019-01-03T04:54:48.814Z,3.90
2019-01-03T04:57:18.905Z,3.90
2019-01-03T04:59:48.974Z,3.80
2019-01-03T05:02:35.606Z,3.90
2019-01-03T05:05:23.391Z,3.90
2019-01-03T05:07:57.589Z,3.80
2019-01-03T05:10:44.211Z,3.80
2019-01-03T05:13:26.259Z,3.90
2019-01-03T05:16:11.328Z,3.90
2019-01-03T05:18:56.307Z,3.90
2019-01-03T05:21:31.864Z,3.80
2019-01-03T05:24:11.088Z,3.80
2019-01-03T05:26:57.341Z,3.90
2019-01-03T05:29:27.429Z,3.80
2019-01-03T05:32:03.681Z,3.80
2019-01-03T05:34:50.590Z,3.80
2019-01-03T05:37:26.452Z,3.80
2019-01-03T05:39:59.728Z,3.90
2019-01-03T05:42:38.868Z,3.80
2019-01-03T05:45:09.021Z,3.80
2019-01-03T05:47:45.077Z,3.70
2019-01-03T05:50:27.215Z,3.80
2019-01-03T05:53:03.044Z,3.70
2019-01-03T05:55:51.361Z,3.70
2019-01-03T05:58:21.671Z,3.70
2019-01-03T06:00:57.570Z,3.70
2019-01-03T06:03:27.637Z,3.70
2019-01-03T06:06:03.504Z,3.60
2019-01-03T06:08:50.223Z,3.60
2019-01-03T06:11:36.608Z,3.60
2019-01-03T06:14:18.985Z,3.60
2019-01-03T06:17:04.988Z,3.60
2019-01-03T06:19:35.345Z,3.60
2019-01-03T06:22:21.420Z,3.60
2019-01-03T06:24:54.481Z,3.60
2019-01-03T06:27:41.547Z,3.60
2019-01-03T06:30:29.755Z,3.70
2019-01-03T06:33:16.505Z,3.70
2019-01-03T06:35:53.794Z,3.70
2019-01-03T06:38:40.581Z,3.60
2019-01-03T06:41:25.744Z,3.70
2019-01-03T06:44:12.519Z,3.70
2019-01-03T06:46:48.425Z,3.70
2019-01-03T06:49:24.345Z,3.70
2019-01-03T06:52:00.288Z,3.70
2019-01-03T06:54:45.169Z,3.70
2019-01-03T06:57:17.947Z,3.80
2019-01-03T07:00:06.135Z,3.80
2019-01-03T07:02:39.101Z,3.80
2019-01-03T07:05:09.157Z,3.80
2019-01-03T07:07:48.113Z,3.80
2019-01-03T07:10:27.697Z,3.70
2019-01-03T07:13:03.715Z,3.70
2019-01-03T07:15:48.888Z,3.70
2019-01-03T07:18:28.011Z,3.70
2019-01-03T07:21:14.421Z,3.70
2019-01-03T07:23:44.790Z,3.70
2019-01-03T07:26:30.157Z,3.70
2019-01-03T07:29:16.826Z,3.70
2019-01-03T07:32:01.954Z,3.80
2019-01-03T07:34:44.112Z,3.70
2019-01-03T07:37:14.196Z,3.70
2019-01-03T07:39:44.601Z,3.60
2019-01-03T07:42:23.297Z,3.70
2019-01-03T07:45:11.413Z,3.70
2019-01-03T07:47:57.875Z,3.60
2019-01-03T07:50:37.124Z,3.70
2019-01-03T07:53:13.269Z,3.80
2019-01-03T07:55:49.412Z,3.90
2019-01-03T07:58:19.492Z,3.90
2019-01-03T08:00:52.560Z,4.00
2019-01-03T08:03:25.583Z,4.00
2019-01-03T08:06:01.985Z,4.00
2019-01-03T08:08:54.815Z,4.10
2019-01-03T08:11:46.027Z,4.10
2019-01-03T08:14:24.673Z,4.20
2019-01-03T08:17:11.252Z,4.30
2019-01-03T08:19:47.646Z,4.30
2019-01-03T08:22:23.489Z,4.10
2019-01-03T08:25:02.148Z,4.10
2019-01-03T08:27:48.157Z,4.10
2019-01-03T08:30:18.217Z,4.10
2019-01-03T08:32:48.328Z,4.10
2019-01-03T08:35:24.746Z,4.00
2019-01-03T08:37:57.604Z,4.00
2019-01-03T08:40:44.107Z,4.10
2019-01-03T08:43:28.950Z,4.10
2019-01-03T08:45:59.020Z,4.10
2019-01-03T08:48:32.055Z,4.20
2019-01-03T08:51:14.199Z,4.20
2019-01-03T08:54:02.821Z,4.30
2019-01-03T08:56:38.794Z,4.40
2019-01-03T08:59:20.905Z,4.40
2019-01-03T09:01:50.975Z,4.50
2019-01-03T09:04:37.728Z,4.50
2019-01-03T09:07:22.783Z,4.50
2019-01-03T09:09:58.803Z,4.40
2019-01-03T09:12:34.912Z,4.30
2019-01-03T09:15:05.147Z,4.40
2019-01-03T09:17:35.546Z,4.30
2019-01-03T09:20:18.735Z,4.30
2019-01-03T09:22:58.431Z,4.40
2019-01-03T09:25:44.619Z,4.50
2019-01-03T09:28:14.713Z,4.60
2019-01-03T09:30:44.802Z,4.60
2019-01-03T09:33:29.837Z,4.70
2019-01-03T09:35:59.916Z,4.80
2019-01-03T09:38:48.169Z,4.90
2019-01-03T09:41:18.622Z,4.90
2019-01-03T09:43:57.667Z,4.90
2019-01-03T09:46:26.445Z,4.90
2019-01-03T09:48:54.870Z,5.00
2019-01-03T09:51:23.314Z,4.90
2019-01-03T09:53:51.737Z,5.00
2019-01-03T09:56:20.483Z,5.00
2019-01-03T09:58:48.927Z,5.00
2019-01-03T10:01:17.341Z,5.10
2019-01-03T10:03:46.111Z,5.10
2019-01-03T10:06:14.555Z,5.30
2019-01-03T10:08:42.983Z,5.40
2019-01-03T10:13:47.284Z,5.40
2019-01-03T10:16:15.689Z,5.40
2019-01-03T10:18:44.116Z,5.50
2019-01-03T10:21:12.865Z,5.60
2019-01-03T10:23:41.286Z,5.60
2019-01-03T10:26:09.703Z,5.50
2019-01-03T10:28:38.114Z,5.40
2019-01-03T10:31:06.531Z,5.50
2019-01-03T10:33:34.969Z,5.50
2019-01-03T10:36:03.387Z,5.50
2019-01-03T10:38:31.806Z,5.40
2019-01-03T10:41:00.225Z,5.30
2019-01-03T10:43:28.641Z,5.20
2019-01-03T10:45:57.433Z,5.30
2019-01-03T10:48:25.854Z,5.40
2019-01-03T10:50:54.351Z,5.50
2019-01-03T10:53:23.062Z,5.50
2019-01-03T10:55:51.514Z,5.50
2019-01-03T10:58:19.908Z,5.60
2019-01-03T11:00:48.329Z,5.70
2019-01-03T11:03:16.734Z,5.70
2019-01-03T11:05:45.164Z,5.80
2019-01-03T11:08:13.590Z,5.80
2019-01-03T11:10:41.990Z,5.90
2019-01-03T11:13:10.422Z,5.80
2019-01-03T11:15:39.098Z,5.80
2019-01-03T11:18:07.520Z,5.70
2019-01-03T11:20:36.045Z,5.70
2019-01-03T11:23:04.500Z,5.60
2019-01-03T11:25:32.970Z,5.50
2019-01-03T11:28:01.377Z,5.60
2019-01-03T11:30:30.037Z,5.70
2019-01-03T11:32:58.747Z,5.70
2019-01-03T11:35:27.169Z,5.70
2019-01-03T11:37:55.870Z,5.80
2019-01-03T11:40:24.284Z,5.80
2019-01-03T11:42:52.717Z,5.90
2019-01-03T11:45:21.494Z,5.90
2019-01-03T11:47:49.898Z,6.00
2019-01-03T11:50:18.300Z,6.00
2019-01-03T11:52:47.006Z,6.10
2019-01-03T11:55:15.407Z,6.10
2019-01-03T11:57:43.828Z,6.20
2019-01-03T12:00:12.325Z,6.20
2019-01-03T12:02:40.741Z,6.30
2019-01-03T12:05:09.445Z,6.30
2019-01-03T12:07:38.150Z,6.40
2019-01-03T12:10:07.177Z,6.30
2019-01-03T12:12:35.907Z,6.20
2019-01-03T12:15:06.469Z,6.20
2019-01-03T12:17:35.156Z,6.20
2019-01-03T12:20:04.227Z,6.30
2019-01-03T12:22:32.649Z,6.20
2019-01-03T12:25:01.059Z,6.10
2019-01-03T12:27:29.797Z,6.10
2019-01-03T12:29:58.514Z,6.10
2019-01-03T12:32:26.919Z,6.20
2019-01-03T12:34:55.459Z,6.20
2019-01-03T12:37:23.870Z,6.20
2019-01-03T12:39:52.307Z,6.20
2019-01-03T12:42:21.057Z,6.40
2019-01-03T12:44:49.477Z,6.30
2019-01-03T12:47:18.171Z,6.30
2019-01-03T12:49:47.068Z,6.20
2019-01-03T12:52:15.498Z,6.20
2019-01-03T12:54:43.907Z,6.20
2019-01-03T12:57:12.344Z,6.30
2019-01-03T12:59:40.743Z,6.50
2019-01-03T13:02:09.161Z,6.50
2019-01-03T13:04:37.883Z,6.60
2019-01-03T13:07:06.274Z,6.60
2019-01-03T13:09:34.701Z,6.40
2019-01-03T13:12:03.103Z,6.20
2019-01-03T13:14:31.533Z,6.10
2019-01-03T13:17:01.590Z,6.10
2019-01-03T13:19:30.255Z,6.10
2019-01-03T13:21:58.674Z,6.10
2019-01-03T13:24:27.077Z,6.20
2019-01-03T13:26:55.793Z,6.20
2019-01-03T13:29:24.221Z,6.20
2019-01-03T13:31:52.710Z,6.30
2019-01-03T13:34:21.227Z,6.40
2019-01-03T13:36:49.636Z,6.60
2019-01-03T13:39:18.058Z,6.60
2019-01-03T13:41:46.727Z,6.50
2019-01-03T13:44:15.445Z,6.50
2019-01-03T13:46:44.148Z,6.40
2019-01-03T13:49:12.565Z,6.50
2019-01-03T13:51:41.001Z,6.50
2019-01-03T13:54:09.399Z,6.60
2019-01-03T13:56:37.822Z,6.60
2019-01-03T13:59:06.259Z,6.50
2019-01-03T14:01:34.677Z,6.60
2019-01-03T14:04:03.109Z,6.60
2019-01-03T14:06:31.520Z,6.50
2019-01-03T14:09:00.217Z,6.40
2019-01-03T14:11:28.650Z,6.40
2019-01-03T14:13:57.054Z,6.40
2019-01-03T14:16:25.481Z,6.30
2019-01-03T14:18:53.954Z,6.30
2019-01-03T14:21:22.395Z,6.40
2019-01-03T14:23:50.811Z,6.40
2019-01-03T14:26:19.397Z,6.50
2019-01-03T14:28:47.834Z,6.30
2019-01-03T14:31:16.236Z,6.30
2019-01-03T14:33:44.962Z,6.30
2019-01-03T14:36:13.367Z,6.30
2019-01-03T14:38:42.090Z,6.20
2019-01-03T14:41:10.487Z,6.10
2019-01-03T14:43:38.921Z,6.10
2019-01-03T14:46:07.328Z,6.10
2019-01-03T14:48:35.748Z,6.10
2019-01-03T14:51:04.513Z,6.10
2019-01-03T14:53:33.214Z,6.10
2019-01-03T14:56:01.646Z,6.00
2019-01-03T14:58:30.052Z,6.00
2019-01-03T15:00:58.737Z,6.00
2019-01-03T15:03:27.458Z,5.90
2019-01-03T15:05:56.124Z,5.80
2019-01-03T15:08:24.547Z,5.90
2019-01-03T15:10:52.960Z,5.80
2019-01-03T15:13:21.350Z,5.80
2019-01-03T15:15:50.093Z,5.80
2019-01-03T15:18:18.491Z,5.80
2019-01-03T15:20:46.921Z,5.70
2019-01-03T15:23:15.319Z,5.70
2019-01-03T15:25:43.741Z,5.70
2019-01-03T15:28:12.449Z,5.70
2019-01-03T15:30:40.866Z,5.60
2019-01-03T15:33:09.275Z,5.60
2019-01-03T15:35:37.674Z,5.70
2019-01-03T15:38:06.086Z,5.60
2019-01-03T15:40:34.487Z,5.40
2019-01-03T15:43:02.895Z,5.30
2019-01-03T15:45:31.299Z,5.30
2019-01-03T15:47:59.730Z,5.30
2019-01-03T15:50:28.131Z,5.40
2019-01-03T15:52:56.535Z,5.30
2019-01-03T15:55:25.308Z,5.30
2019-01-03T15:57:53.720Z,5.20
2019-01-03T16:00:22.175Z,5.30
2019-01-03T16:02:50.590Z,5.40
2019-01-03T16:05:18.983Z,5.30
2019-01-03T16:07:47.725Z,5.30
2019-01-03T16:10:17.005Z,5.30
2019-01-03T16:12:45.656Z,5.30
2019-01-03T16:15:14.055Z,5.40
2019-01-03T16:17:42.485Z,5.30
2019-01-03T16:20:10.900Z,5.30
2019-01-03T16:22:39.314Z,5.30
2019-01-03T16:25:07.807Z,5.40
2019-01-03T16:27:36.215Z,5.40
2019-01-03T16:30:07.569Z,5.50
2019-01-03T16:32:36.284Z,5.60
2019-01-03T16:35:05.097Z,5.60
2019-01-03T16:37:33.513Z,5.60
2019-01-03T16:40:01.936Z,5.60
2019-01-03T16:42:41.119Z,5.70
2019-01-03T16:45:11.486Z,5.80
2019-01-03T16:47:39.896Z,5.80
2019-01-03T16:50:13.810Z,5.70
2019-01-03T16:52:42.561Z,5.70
2019-01-03T16:55:10.989Z,5.70
2019-01-03T16:57:39.391Z,5.70
2019-01-03T17:00:10.584Z,5.60
2019-01-03T17:02:38.982Z,5.60
2019-01-03T17:05:07.578Z,5.60
2019-01-03T17:07:36.355Z,5.60
2019-01-03T17:10:10.639Z,5.70
2019-01-03T17:12:39.038Z,5.60
2019-01-03T17:15:07.619Z,5.50
2019-01-03T17:17:36.034Z,5.50
2019-01-03T17:20:06.768Z,5.60
2019-01-03T17:22:35.189Z,5.70
2019-01-03T17:25:03.594Z,5.80
2019-01-03T17:27:32.324Z,5.70
2019-01-03T17:30:01.017Z,5.60
2019-01-03T17:32:29.731Z,5.60
2019-01-03T17:34:58.142Z,5.60
2019-01-03T17:37:26.559Z,5.60
2019-01-03T17:39:55.032Z,5.70
2019-01-03T17:42:23.511Z,5.60
2019-01-03T17:44:52.253Z,5.60
2019-01-03T17:47:20.974Z,5.70
2019-01-03T17:49:49.383Z,5.60
2019-01-03T17:52:17.793Z,5.70
2019-01-03T17:54:46.229Z,5.70
2019-01-03T17:57:14.640Z,5.80
2019-01-03T17:59:43.073Z,5.80
2019-01-03T18:02:11.801Z,5.80
2019-01-03T18:04:40.227Z,5.80
2019-01-03T18:07:08.627Z,5.70
2019-01-03T18:09:37.042Z,5.70
2019-01-03T18:12:05.715Z,5.80
2019-01-03T18:14:34.136Z,5.80
2019-01-03T18:17:02.566Z,5.80
2019-01-03T18:19:30.963Z,5.80
2019-01-03T18:21:59.391Z,5.80
2019-01-03T18:24:28.053Z,5.80
2019-01-03T18:26:56.479Z,5.80
2019-01-03T18:29:25.178Z,5.70
2019-01-03T18:31:53.985Z,5.70
2019-01-03T18:34:22.383Z,5.70
2019-01-03T18:36:50.810Z,5.70
2019-01-03T18:39:19.221Z,5.60
2019-01-03T18:41:47.912Z,5.50
2019-01-03T18:44:16.325Z,5.30
2019-01-03T18:46:44.737Z,5.20
2019-01-03T18:49:13.152Z,5.10
2019-01-03T18:51:41.818Z,5.00
2019-01-03T18:54:10.232Z,4.90
2019-01-03T18:56:38.638Z,4.80
2019-01-03T18:59:07.039Z,4.80
2019-01-03T19:01:35.450Z,4.70
2019-01-03T19:04:03.899Z,4.60
2019-01-03T19:06:32.295Z,4.50
2019-01-03T19:09:00.713Z,4.40
2019-01-03T19:11:29.464Z,4.30
2019-01-03T19:13:58.183Z,4.30
2019-01-03T19:16:26.587Z,4.30
2019-01-03T19:18:55.296Z,4.30
2019-01-03T19:21:24.016Z,4.30
2019-01-03T19:23:55.353Z,4.30
2019-01-03T19:26:22.592Z,4.30
2019-01-03T19:28:51.002Z,4.40
2019-01-03T19:31:19.423Z,4.40
2019-01-03T19:33:47.836Z,4.40
2019-01-03T19:36:16.242Z,4.30
2019-01-03T19:38:44.981Z,4.30
2019-01-03T19:41:13.687Z,4.20
2019-01-03T19:43:42.404Z,4.10
2019-01-03T19:46:10.807Z,3.90
2019-01-03T19:48:39.512Z,3.80
2019-01-03T19:51:07.916Z,3.70
2019-01-03T19:53:36.356Z,3.70
2019-01-03T19:56:05.043Z,3.70
2019-01-03T19:58:33.747Z,3.70
2019-01-03T20:01:02.461Z,3.70
2019-01-03T20:03:30.878Z,3.70
2019-01-03T20:05:59.301Z,3.70
2019-01-03T20:08:27.722Z,3.70
2019-01-03T20:10:56.135Z,3.70
2019-01-03T20:13:24.543Z,3.80
2019-01-03T20:15:52.977Z,3.80
2019-01-03T20:18:21.435Z,3.80
2019-01-03T20:20:52.912Z,3.80
2019-01-03T20:23:20.061Z,3.70
2019-01-03T20:25:48.475Z,3.80
2019-01-03T20:28:16.918Z,3.80
2019-01-03T20:30:45.334Z,3.80
2019-01-03T20:33:13.765Z,3.80
2019-01-03T20:35:42.167Z,3.80
2019-01-03T20:38:10.604Z,3.70
2019-01-03T20:40:39.003Z,3.80
2019-01-03T20:43:07.488Z,3.80
2019-01-03T20:45:35.963Z,3.80
2019-01-03T20:48:04.462Z,3.80
2019-01-03T20:50:32.884Z,3.80
2019-01-03T20:53:01.309Z,3.80
2019-01-03T20:55:29.713Z,3.80
2019-01-03T20:57:58.123Z,3.90
2019-01-03T21:00:26.528Z,3.90
2019-01-03T21:02:55.090Z,3.80
2019-01-03T21:05:23.534Z,3.80
2019-01-03T21:07:51.939Z,3.70
2019-01-03T21:10:20.386Z,3.70
2019-01-03T21:12:48.798Z,3.70
2019-01-03T21:15:17.549Z,3.60
2019-01-03T21:17:45.982Z,3.60
2019-01-03T21:20:15.921Z,3.60
2019-01-03T21:22:44.351Z,3.50
2019-01-03T21:25:13.729Z,3.50
2019-01-03T21:27:42.606Z,3.50
2019-01-03T21:30:13.850Z,3.40
2019-01-03T21:32:42.345Z,3.40
2019-01-03T21:35:10.895Z,3.50
2019-01-03T21:37:39.343Z,3.60
2019-01-03T21:40:10.369Z,3.60
2019-01-03T21:42:38.854Z,3.60
2019-01-03T21:45:07.905Z,3.50
2019-01-03T21:47:36.317Z,3.50
2019-01-03T21:50:07.680Z,3.50
2019-01-03T21:52:36.094Z,3.60
2019-01-03T21:55:04.990Z,3.60
2019-01-03T21:57:33.408Z,3.50
2019-01-03T22:00:02.158Z,3.40
2019-01-03T22:02:30.555Z,3.40
2019-01-03T22:04:59.285Z,3.30
2019-01-03T22:07:27.993Z,3.30
2019-01-03T22:09:56.695Z,3.20
2019-01-03T22:12:25.107Z,3.20
2019-01-03T22:14:53.553Z,3.10
2019-01-03T22:17:22.322Z,3.20
2019-01-03T22:19:50.722Z,3.30
2019-01-03T22:22:19.132Z,3.40
2019-01-03T22:24:47.832Z,3.40
2019-01-03T22:27:16.248Z,3.40
2019-01-03T22:29:44.650Z,3.50
2019-01-03T22:32:13.209Z,3.50
2019-01-03T22:34:41.655Z,3.50
2019-01-03T22:37:10.055Z,3.40
2019-01-03T22:39:38.481Z,3.20
2019-01-03T22:42:06.906Z,3.20
2019-01-03T22:44:35.325Z,3.10
2019-01-03T22:47:03.744Z,3.00
2019-01-03T22:49:32.197Z,3.00
2019-01-03T22:52:00.664Z,2.90
2019-01-03T22:54:29.085Z,2.90
2019-01-03T22:56:57.520Z,2.80
2019-01-03T22:59:26.222Z,2.80
2019-01-03T23:01:55.031Z,2.60
2019-01-03T23:04:23.493Z,2.60
2019-01-03T23:06:51.895Z,2.60
2019-01-03T23:09:20.317Z,2.60
2019-01-03T23:11:48.727Z,2.60
2019-01-03T23:14:17.154Z,2.60
2019-01-03T23:16:45.550Z,2.60
2019-01-03T23:19:14.003Z,2.50
2019-01-03T23:21:42.418Z,2.50
2019-01-03T23:24:10.829Z,2.50
2019-01-03T23:26:39.252Z,2.50
2019-01-03T23:29:07.664Z,2.50
2019-01-03T23:31:36.385Z,2.40
2019-01-03T23:34:04.794Z,2.40
2019-01-03T23:36:33.501Z,2.40
2019-01-03T23:39:02.218Z,2.40
2019-01-03T23:41:30.629Z,2.40
2019-01-03T23:43:59.332Z,2.30
2019-01-03T23:46:27.757Z,2.30
2019-01-03T23:48:56.232Z,2.30
2019-01-03T23:51:24.647Z,2.30
2019-01-03T23:53:53.078Z,2.30
2019-01-03T23:56:21.512Z,2.30
2019-01-03T23:58:49.936Z,2.30
